Hovedside
METAR-TAF:

METAR-TAF

Lufthavner :

Flystasjon

Linköping, Sverige

breddegrad: 58-24N, lengdegrad: 015-31E, høyde over havet: 93 m

Gjeldene værobservasjon

Denne rapporten ble laget for 22 minutter siden, klokken 12:20 UTC
Vind 11 kt fra Vest
Temperatur 4°C
Luftfuktighet 60%
Trykk 1006 hPa
Sikt 10 km eller mer
ingen skyer under 1500 m og ingen bygeskyer

METAR: ESCF 241220Z 26011KT CAVOK 04/M03 Q1006

Tid: 13:42 (12:42 UTC)

Varsel

Denne rapporten ble laget for 1 time og 12 minutter siden, klokken 11:30 UTC
Varsel gyldig fra 24. klokken 12 UTC til 24. klokken 16 UTC
Vind 10 kt fra Vest med vindkast opp mot 18 kt
Sikt 10 km eller mer
ingen skyer under 1500 m og ingen bygeskyer

TAF: ESCF 241130Z 2412/2416 27010G18KT CAVOK RMK MIL

Værobservasjoner og værvarsel for over 4000 flyplasser (METAR- og TAF-rapporter).

Tilgjengelige stasjoner er representert av de røde og gule prikkene på kartet.

Hold musepekeren over prikken for å se navnet på stasjonen.

Klikk så for å se værobservasjoner og -varsler.

For å forandre kartet kan du klikke på den grønne knappen med svart kryss for å zoome inn, på den grønne knappen med strek for å zoome ut, eller på de grønne pilene for å se tilstøtende kart.


METAR-TAF: